createdAt,value
2023-05-06T00:00:10.530Z,451.8462
2023-05-06T00:01:12.342Z,449.6154
2023-05-06T00:02:14.186Z,449.4615
2023-05-06T00:03:16.082Z,449.3846
2023-05-06T00:04:17.915Z,448.3846
2023-05-06T00:05:19.679Z,447.3846
2023-05-06T00:06:21.528Z,447.2308
2023-05-06T00:07:23.363Z,448.8462
2023-05-06T00:08:25.294Z,451.2308
2023-05-06T00:09:27.044Z,447.3846
2023-05-06T00:10:28.867Z,441.0769
2023-05-06T00:11:30.717Z,455.3846
2023-05-06T00:12:32.571Z,432.4615
2023-05-06T00:13:34.413Z,464.6154
2023-05-06T00:14:36.233Z,441.6923
2023-05-06T00:15:38.055Z,451.8462
2023-05-06T00:16:39.917Z,453.1538
2023-05-06T00:17:41.795Z,449.5385
2023-05-06T00:18:43.567Z,447.5385
2023-05-06T00:19:45.427Z,449.0000
2023-05-06T00:20:47.230Z,450.4615
2023-05-06T00:21:49.088Z,448.6154
2023-05-06T00:22:50.915Z,448.6154
2023-05-06T00:23:52.751Z,449.7692
2023-05-06T00:24:54.582Z,450.0000
2023-05-06T00:25:56.503Z,451.6154
2023-05-06T00:26:58.256Z,453.0000
2023-05-06T00:28:00.155Z,433.3846
2023-05-06T00:29:01.935Z,446.3846
2023-05-06T00:30:03.761Z,447.0000
2023-05-06T00:31:05.596Z,446.7692
2023-05-06T00:32:07.507Z,440.3846
2023-05-06T00:33:09.315Z,452.5385
2023-05-06T00:34:11.104Z,450.9231
2023-05-06T00:35:12.956Z,451.9231
2023-05-06T00:36:14.764Z,450.4615
2023-05-06T00:37:16.611Z,450.0769
2023-05-06T00:38:18.452Z,448.8462
2023-05-06T00:39:20.349Z,449.6154
2023-05-06T00:40:22.130Z,450.3846
2023-05-06T00:41:23.948Z,451.5385
2023-05-06T00:42:25.881Z,450.7692
2023-05-06T00:43:27.625Z,450.0000
2023-05-06T00:44:29.480Z,450.3077
2023-05-06T00:45:31.299Z,437.3846
2023-05-06T00:46:33.135Z,433.0000
2023-05-06T00:47:35.022Z,454.3846
2023-05-06T00:48:36.789Z,424.3846
2023-05-06T00:49:38.644Z,456.3846
2023-05-06T00:50:40.492Z,450.0769
2023-05-06T00:51:42.319Z,449.6923
2023-05-06T00:52:44.152Z,450.8462
2023-05-06T00:53:45.983Z,451.2308
2023-05-06T00:54:47.966Z,450.8462
2023-05-06T00:55:49.653Z,451.5385
2023-05-06T00:56:51.494Z,450.9231
2023-05-06T00:57:53.330Z,451.7692
2023-05-06T00:58:55.157Z,451.0000
2023-05-06T00:59:56.976Z,451.3846
2023-05-06T01:00:58.830Z,449.0769
2023-05-06T01:02:00.739Z,448.2308
2023-05-06T01:03:02.592Z,450.0769
2023-05-06T01:04:04.406Z,432.8462
2023-05-06T01:05:06.212Z,455.0769
2023-05-06T01:06:08.018Z,445.6923
2023-05-06T01:07:09.837Z,442.5385
2023-05-06T01:08:11.681Z,455.1538
2023-05-06T01:09:13.519Z,455.7692
2023-05-06T01:10:15.465Z,454.3846
2023-05-06T01:11:17.173Z,452.9231
2023-05-06T01:12:19.010Z,452.4615
2023-05-06T01:13:20.908Z,449.8462
2023-05-06T01:14:22.685Z,450.0769
2023-05-06T01:15:24.532Z,449.2308
2023-05-06T01:16:26.396Z,450.5385
2023-05-06T01:17:28.209Z,451.5385
2023-05-06T01:18:30.050Z,452.2308
2023-05-06T01:19:31.857Z,448.7692
2023-05-06T01:20:33.696Z,446.4615
2023-05-06T01:21:35.542Z,437.0769
2023-05-06T01:22:37.400Z,454.2308
2023-05-06T01:23:39.221Z,438.3077
2023-05-06T01:24:41.055Z,475.5385
2023-05-06T01:25:42.955Z,457.8462
2023-05-06T01:26:44.729Z,454.5385
2023-05-06T01:27:46.568Z,456.5385
2023-05-06T01:28:48.413Z,458.2308
2023-05-06T01:29:50.285Z,457.0769
2023-05-06T01:30:52.110Z,453.9231
2023-05-06T01:31:53.903Z,453.3846
2023-05-06T01:32:55.778Z,453.5385
2023-05-06T01:33:57.592Z,452.9231
2023-05-06T01:34:59.427Z,453.7692
2023-05-06T01:36:01.268Z,452.9231
2023-05-06T01:37:03.084Z,453.2308
2023-05-06T01:38:04.920Z,447.7692
2023-05-06T01:39:06.749Z,447.6923
2023-05-06T01:40:08.586Z,441.4615
2023-05-06T01:41:10.487Z,450.5385
2023-05-06T01:42:12.300Z,456.3077
2023-05-06T01:43:14.102Z,446.4615
2023-05-06T01:44:15.951Z,458.6154
2023-05-06T01:45:17.788Z,455.9231
2023-05-06T01:46:19.620Z,454.7692
2023-05-06T01:47:21.450Z,453.6923
2023-05-06T01:48:23.314Z,451.1538
2023-05-06T01:49:25.129Z,450.7692
2023-05-06T01:50:26.966Z,451.3846
2023-05-06T01:51:28.801Z,453.6923
2023-05-06T01:52:30.651Z,453.4615
2023-05-06T01:53:32.474Z,455.4615
2023-05-06T01:54:34.339Z,453.2308
2023-05-06T01:55:36.177Z,451.3077
2023-05-06T01:56:37.999Z,437.4615
2023-05-06T01:57:39.852Z,456.5385
2023-05-06T01:58:41.678Z,462.0769
2023-05-06T01:59:43.519Z,447.6923
2023-05-06T02:00:45.354Z,457.1538
2023-05-06T02:01:47.248Z,458.6154
2023-05-06T02:02:49.131Z,458.0000
2023-05-06T02:03:50.950Z,453.9231
2023-05-06T02:04:52.700Z,452.0000
2023-05-06T02:06:02.055Z,461.0769
2023-05-06T02:06:56.373Z,468.2500
2023-05-06T02:07:58.209Z,463.4615
2023-05-06T02:09:00.039Z,459.2308
2023-05-06T02:10:01.876Z,457.7692
2023-05-06T02:11:13.151Z,463.4546
2023-05-06T02:12:06.767Z,466.9167
2023-05-06T02:13:08.275Z,458.6923
2023-05-06T02:14:09.780Z,446.2308
2023-05-06T02:15:11.498Z,448.1538
2023-05-06T02:16:12.996Z,450.3077
2023-05-06T02:17:14.749Z,434.3846
2023-05-06T02:18:16.572Z,455.3077
2023-05-06T02:19:18.432Z,450.6923
2023-05-06T02:20:20.282Z,453.1538
2023-05-06T02:21:22.096Z,455.1538
2023-05-06T02:22:23.959Z,454.8462
2023-05-06T02:23:25.763Z,454.3077
2023-05-06T02:24:27.619Z,452.0000
2023-05-06T02:25:29.441Z,452.9231
2023-05-06T02:26:31.278Z,454.0000
2023-05-06T02:27:33.253Z,453.5385
2023-05-06T02:28:34.965Z,453.5385
2023-05-06T02:29:36.808Z,453.8462
2023-05-06T02:30:38.635Z,449.3077
2023-05-06T02:31:40.487Z,451.6154
2023-05-06T02:32:42.340Z,444.5385
2023-05-06T02:33:44.138Z,437.1538
2023-05-06T02:34:46.080Z,468.6923
2023-05-06T02:35:47.888Z,442.2308
2023-05-06T02:36:49.704Z,457.0000
2023-05-06T02:37:51.558Z,453.7692
2023-05-06T02:38:53.396Z,449.2308
2023-05-06T02:39:55.216Z,450.6923
2023-05-06T02:40:57.064Z,450.4615
2023-05-06T02:41:58.919Z,450.0769
2023-05-06T02:43:00.822Z,450.5385
2023-05-06T02:44:02.567Z,449.8462
2023-05-06T02:45:04.412Z,448.5385
2023-05-06T02:46:06.267Z,448.9231
2023-05-06T02:47:08.054Z,449.7692
2023-05-06T02:48:09.906Z,446.0000
2023-05-06T02:49:11.784Z,444.7692
2023-05-06T02:50:13.570Z,434.6154
2023-05-06T02:51:15.412Z,458.0769
2023-05-06T02:52:17.256Z,434.9231
2023-05-06T02:53:19.066Z,457.9231
2023-05-06T02:54:20.911Z,452.3077
2023-05-06T02:55:22.721Z,455.4615
2023-05-06T02:56:24.551Z,452.3077
2023-05-06T02:57:26.468Z,451.0769
2023-05-06T02:58:28.218Z,452.3846
2023-05-06T02:59:30.065Z,453.6154
2023-05-06T03:00:31.907Z,455.4615
2023-05-06T03:01:33.767Z,454.9231
2023-05-06T03:02:35.619Z,452.8462
2023-05-06T03:03:37.403Z,453.1538
2023-05-06T03:04:39.349Z,454.0000
2023-05-06T03:05:41.077Z,449.3846
2023-05-06T03:06:42.901Z,451.5385
2023-05-06T03:07:44.750Z,429.6923
2023-05-06T03:08:46.584Z,464.2308
2023-05-06T03:09:48.424Z,423.3077
2023-05-06T03:10:50.264Z,455.8462
2023-05-06T03:11:52.091Z,456.0769
2023-05-06T03:12:53.940Z,459.1538
2023-05-06T03:13:55.845Z,460.8462
2023-05-06T03:14:57.591Z,458.7692
2023-05-06T03:15:59.440Z,457.0769
2023-05-06T03:17:01.261Z,454.3077
2023-05-06T03:18:03.146Z,455.6923
2023-05-06T03:19:04.940Z,456.2308
2023-05-06T03:20:06.765Z,455.8462
2023-05-06T03:21:08.636Z,455.6154
2023-05-06T03:22:10.466Z,455.2308
2023-05-06T03:23:12.300Z,452.3077
2023-05-06T03:24:14.135Z,456.0000
2023-05-06T03:25:15.978Z,449.6154
2023-05-06T03:26:17.812Z,428.9231
2023-05-06T03:27:19.659Z,457.7692
2023-05-06T03:28:21.503Z,456.6923
2023-05-06T03:29:23.331Z,448.4615
2023-05-06T03:30:25.162Z,449.3077
2023-05-06T03:31:27.060Z,452.0000
2023-05-06T03:32:28.864Z,453.1538
2023-05-06T03:33:30.697Z,454.8462
2023-05-06T03:34:32.526Z,455.6154
2023-05-06T03:35:34.378Z,454.7692
2023-05-06T03:36:36.218Z,455.9231
2023-05-06T03:37:38.056Z,456.4615
2023-05-06T03:38:39.907Z,456.6154
2023-05-06T03:39:41.781Z,457.0000
2023-05-06T03:40:43.572Z,450.6923
2023-05-06T03:41:45.426Z,445.0769
2023-05-06T03:42:47.242Z,441.8462
2023-05-06T03:43:49.080Z,461.8462
2023-05-06T03:44:50.929Z,467.8462
2023-05-06T03:45:52.791Z,450.6923
2023-05-06T03:46:54.593Z,450.3077
2023-05-06T03:47:58.348Z,458.3077
2023-05-06T03:48:58.312Z,456.4615
2023-05-06T03:50:00.153Z,453.6923
2023-05-06T03:51:01.963Z,454.7692
2023-05-06T03:52:03.804Z,456.0000
2023-05-06T03:53:05.627Z,455.6154
2023-05-06T03:54:07.496Z,455.2308
2023-05-06T03:55:09.431Z,457.3077
2023-05-06T03:56:11.151Z,456.5385
2023-05-06T03:57:13.004Z,455.5385
2023-05-06T03:58:14.812Z,446.2308
2023-05-06T03:59:16.648Z,445.0000
2023-05-06T04:00:18.583Z,460.6923
2023-05-06T04:01:20.323Z,440.9231
2023-05-06T04:02:22.240Z,446.0769
2023-05-06T04:03:24.077Z,459.6923
2023-05-06T04:04:25.838Z,456.6154
2023-05-06T04:05:27.681Z,455.3846
2023-05-06T04:06:29.541Z,455.4615
2023-05-06T04:07:31.355Z,454.0769
2023-05-06T04:08:33.188Z,455.3077
2023-05-06T04:09:35.065Z,453.7692
2023-05-06T04:10:36.891Z,454.1538
2023-05-06T04:11:38.720Z,454.5385
2023-05-06T04:12:40.584Z,453.1538
2023-05-06T04:13:42.439Z,453.0000
2023-05-06T04:14:44.221Z,455.0769
2023-05-06T04:15:46.383Z,453.0769
2023-05-06T04:16:47.894Z,454.6154
2023-05-06T04:17:49.745Z,430.7692
2023-05-06T04:18:51.761Z,463.8462
2023-05-06T04:19:53.395Z,456.3077
2023-05-06T04:20:55.241Z,448.8462
2023-05-06T04:21:57.076Z,456.0000
2023-05-06T04:22:58.915Z,459.1538
2023-05-06T04:24:00.798Z,460.0000
2023-05-06T04:25:02.597Z,458.3846
2023-05-06T04:26:04.436Z,460.0769
2023-05-06T04:27:06.266Z,458.3846
2023-05-06T04:28:08.112Z,456.3077
2023-05-06T04:29:09.956Z,455.6923
2023-05-06T04:30:11.786Z,457.5385
2023-05-06T04:31:13.705Z,458.9231
2023-05-06T04:32:15.451Z,460.8462
2023-05-06T04:33:17.299Z,454.0000
2023-05-06T04:34:19.130Z,451.9231
2023-05-06T04:35:20.959Z,453.4615
2023-05-06T04:36:22.810Z,436.8462
2023-05-06T04:37:24.616Z,463.9231
2023-05-06T04:38:26.458Z,454.5385
2023-05-06T04:39:28.354Z,461.5385
2023-05-06T04:40:30.156Z,459.8462
2023-05-06T04:41:31.966Z,459.5385
2023-05-06T04:42:33.801Z,458.4615
2023-05-06T04:43:35.637Z,456.4615
2023-05-06T04:44:37.489Z,455.9231
2023-05-06T04:45:39.329Z,455.6923
2023-05-06T04:46:41.226Z,455.3846
2023-05-06T04:47:43.048Z,456.2308
2023-05-06T04:48:44.803Z,455.3077
2023-05-06T04:49:46.650Z,455.8462
2023-05-06T04:50:48.463Z,450.6154
2023-05-06T04:51:50.362Z,445.3846
2023-05-06T04:52:52.141Z,447.6154
2023-05-06T04:53:53.989Z,447.6923
2023-05-06T04:54:55.809Z,457.1538
2023-05-06T04:55:57.702Z,454.3846
2023-05-06T04:56:59.478Z,461.9231
2023-05-06T04:58:01.319Z,457.3077
2023-05-06T04:59:03.136Z,458.3846
2023-05-06T05:00:04.986Z,458.3077
2023-05-06T05:01:06.857Z,457.3846
2023-05-06T05:02:08.802Z,457.6923
2023-05-06T05:03:10.608Z,457.4615
2023-05-06T05:04:12.317Z,458.2308
2023-05-06T05:05:14.181Z,458.2308
2023-05-06T05:06:16.003Z,458.6923
2023-05-06T05:07:17.836Z,459.3846
2023-05-06T05:08:19.665Z,457.7692
2023-05-06T05:09:21.501Z,451.0000
2023-05-06T05:10:23.340Z,437.1538
2023-05-06T05:11:25.191Z,464.6154
2023-05-06T05:12:27.001Z,437.2308
2023-05-06T05:13:28.849Z,461.3846
2023-05-06T05:14:30.678Z,458.5385
2023-05-06T05:15:32.494Z,461.6154
2023-05-06T05:16:34.331Z,460.7692
2023-05-06T05:17:36.424Z,460.0769
2023-05-06T05:18:37.990Z,460.7692
2023-05-06T05:19:39.833Z,461.9231
2023-05-06T05:20:41.683Z,463.4615
2023-05-06T05:21:43.555Z,465.0000
2023-05-06T05:22:45.373Z,466.9231
2023-05-06T05:23:47.178Z,466.4615
2023-05-06T05:24:49.027Z,467.5385
2023-05-06T05:25:50.860Z,468.5385
2023-05-06T05:26:52.694Z,463.5385
2023-05-06T05:27:54.523Z,473.6923
2023-05-06T05:28:56.374Z,441.2308
2023-05-06T05:29:58.220Z,486.9231
2023-05-06T05:31:00.145Z,455.8462
2023-05-06T05:32:01.861Z,468.7692
2023-05-06T05:33:03.883Z,470.6154
2023-05-06T05:34:05.526Z,474.3846
2023-05-06T05:35:07.746Z,473.8462
2023-05-06T05:36:09.216Z,473.3846
2023-05-06T05:37:11.096Z,474.4615
2023-05-06T05:38:12.888Z,473.5385
2023-05-06T05:39:14.692Z,471.6923
2023-05-06T05:40:16.549Z,471.0769
2023-05-06T05:41:18.382Z,470.8462
2023-05-06T05:42:20.271Z,468.1538
2023-05-06T05:43:22.042Z,465.0769
2023-05-06T05:44:23.877Z,459.5385
2023-05-06T05:45:25.738Z,455.6154
2023-05-06T05:46:27.564Z,451.1538
2023-05-06T05:47:29.391Z,466.6923
2023-05-06T05:48:31.264Z,449.6923
2023-05-06T05:49:33.099Z,463.8462
2023-05-06T05:50:34.887Z,465.3846
2023-05-06T05:51:36.710Z,465.9231
2023-05-06T05:52:38.552Z,466.3077
2023-05-06T05:53:40.387Z,465.9231
2023-05-06T05:54:42.230Z,464.3077
2023-05-06T05:55:44.059Z,464.0000
2023-05-06T05:56:45.945Z,463.1538
2023-05-06T05:57:47.726Z,464.0769
2023-05-06T05:58:49.568Z,464.8462
2023-05-06T05:59:51.394Z,465.6923
2023-05-06T06:00:53.222Z,464.6154
2023-05-06T06:01:55.059Z,463.7692
2023-05-06T06:02:56.992Z,442.0769
2023-05-06T06:03:58.867Z,462.5385
2023-05-06T06:05:00.696Z,434.0000
2023-05-06T06:06:02.407Z,466.7692
2023-05-06T06:07:04.235Z,448.6154
2023-05-06T06:08:06.077Z,468.4615
2023-05-06T06:09:07.911Z,464.4615
2023-05-06T06:10:09.728Z,463.0000
2023-05-06T06:11:11.583Z,461.0769
2023-05-06T06:12:13.405Z,460.1538
2023-05-06T06:13:15.289Z,461.1538
2023-05-06T06:14:17.074Z,463.0000
2023-05-06T06:15:18.918Z,463.9231
2023-05-06T06:16:20.789Z,464.0000
2023-05-06T06:17:22.629Z,464.4615
2023-05-06T06:18:24.408Z,463.4615
2023-05-06T06:19:26.342Z,462.3846
2023-05-06T06:20:28.100Z,462.4615
2023-05-06T06:21:29.942Z,457.0000
2023-05-06T06:22:31.769Z,433.8462
2023-05-06T06:23:33.597Z,465.6923
2023-05-06T06:24:35.429Z,448.0000
2023-05-06T06:25:37.268Z,458.5385
2023-05-06T06:26:39.106Z,462.6154
2023-05-06T06:27:40.927Z,462.9231
2023-05-06T06:28:42.779Z,462.6923
2023-05-06T06:29:44.608Z,460.9231
2023-05-06T06:30:46.471Z,461.5385
2023-05-06T06:31:48.369Z,462.0000
2023-05-06T06:32:50.181Z,461.4615
2023-05-06T06:33:51.970Z,460.8462
2023-05-06T06:34:53.893Z,457.9231
2023-05-06T06:35:55.681Z,458.1538
2023-05-06T06:36:57.476Z,458.5385
2023-05-06T06:37:59.319Z,458.4615
2023-05-06T06:39:01.217Z,445.3846
2023-05-06T06:40:03.047Z,467.2308
2023-05-06T06:41:04.932Z,424.1538
2023-05-06T06:42:06.752Z,463.3846
2023-05-06T06:43:08.583Z,455.7692
2023-05-06T06:44:10.409Z,460.3846
2023-05-06T06:45:12.374Z,461.0769
2023-05-06T06:46:14.116Z,461.6154
2023-05-06T06:47:15.973Z,461.8462
2023-05-06T06:48:17.751Z,467.2308
2023-05-06T06:49:19.605Z,468.1538
2023-05-06T06:50:21.494Z,468.1538
2023-05-06T06:51:23.290Z,468.3846
2023-05-06T06:52:25.108Z,468.5385
2023-05-06T06:53:26.938Z,468.1538
2023-05-06T06:54:28.777Z,468.5385
2023-05-06T06:55:30.611Z,463.0000
2023-05-06T06:56:32.429Z,461.3846
2023-05-06T06:57:34.304Z,454.3846
2023-05-06T06:58:36.099Z,469.7692
2023-05-06T06:59:37.946Z,458.3846
2023-05-06T07:00:39.786Z,471.6923
2023-05-06T07:01:41.747Z,474.1538
2023-05-06T07:02:43.489Z,470.4615
2023-05-06T07:03:45.346Z,471.3077
2023-05-06T07:04:47.151Z,471.3077
2023-05-06T07:05:48.972Z,469.4615
2023-05-06T07:06:50.841Z,467.6923
2023-05-06T07:07:52.640Z,467.5385
2023-05-06T07:08:54.485Z,469.0000
2023-05-06T07:09:56.314Z,470.3846
2023-05-06T07:10:58.159Z,470.7692
2023-05-06T07:12:00.065Z,471.3077
2023-05-06T07:13:01.871Z,466.5385
2023-05-06T07:14:03.673Z,451.4615
2023-05-06T07:15:05.529Z,469.6923
2023-05-06T07:16:07.359Z,455.9231
2023-05-06T07:17:09.226Z,450.3077
2023-05-06T07:18:11.076Z,476.0000
2023-05-06T07:19:12.882Z,462.0000
2023-05-06T07:20:14.703Z,466.7692
2023-05-06T07:21:16.609Z,467.8462
2023-05-06T07:22:18.393Z,467.5385
2023-05-06T07:23:20.245Z,468.3077
2023-05-06T07:24:22.057Z,467.0769
2023-05-06T07:25:23.888Z,467.8462
2023-05-06T07:26:25.754Z,468.5385
2023-05-06T07:27:27.585Z,466.6154
2023-05-06T07:28:29.419Z,470.6923
2023-05-06T07:29:31.233Z,471.0769
2023-05-06T07:30:33.071Z,470.2308
2023-05-06T07:31:34.929Z,463.4615
2023-05-06T07:32:36.767Z,458.4615
2023-05-06T07:33:38.615Z,445.7692
2023-05-06T07:34:40.436Z,464.3846
2023-05-06T07:35:42.283Z,444.6923
2023-05-06T07:36:44.098Z,465.3077
2023-05-06T07:37:45.968Z,462.0000
2023-05-06T07:38:47.775Z,463.3077
2023-05-06T07:39:49.616Z,465.0769
2023-05-06T07:40:51.462Z,464.2308
2023-05-06T07:41:53.306Z,462.9231
2023-05-06T07:42:55.134Z,461.0000
2023-05-06T07:43:57.032Z,461.9231
2023-05-06T07:44:58.830Z,463.2308
2023-05-06T07:46:00.688Z,463.6923
2023-05-06T07:47:02.557Z,462.8462
2023-05-06T07:48:04.429Z,460.4615
2023-05-06T07:49:06.178Z,451.8462
2023-05-06T07:50:08.025Z,435.9231
2023-05-06T07:51:09.863Z,472.6923
2023-05-06T07:52:11.687Z,441.5385
2023-05-06T07:53:13.535Z,460.5385
2023-05-06T07:54:15.412Z,454.5385
2023-05-06T07:55:17.211Z,452.7692
2023-05-06T07:56:19.100Z,455.1538
2023-05-06T07:57:20.888Z,455.2308
2023-05-06T07:58:22.734Z,455.5385
2023-05-06T07:59:24.555Z,456.1538
2023-05-06T08:00:26.414Z,457.1538
2023-05-06T08:01:28.263Z,456.1538
2023-05-06T08:02:30.156Z,457.5385
2023-05-06T08:03:32.082Z,457.0000
2023-05-06T08:04:33.843Z,457.0769
2023-05-06T08:05:35.596Z,456.7692
2023-05-06T08:06:37.443Z,448.2308
2023-05-06T08:07:39.340Z,441.3846
2023-05-06T08:08:41.112Z,457.3846
2023-05-06T08:09:42.958Z,437.0000
2023-05-06T08:10:44.788Z,456.3846
2023-05-06T08:11:46.630Z,454.9231
2023-05-06T08:12:48.508Z,456.4615
2023-05-06T08:13:50.329Z,452.9231
2023-05-06T08:14:52.199Z,453.1538
2023-05-06T08:15:54.049Z,455.8462
2023-05-06T08:16:55.845Z,455.7692
2023-05-06T08:18:02.145Z,455.3846
2023-05-06T08:19:02.548Z,455.0769
2023-05-06T08:20:03.124Z,455.3846
2023-05-06T08:21:04.725Z,453.1538
2023-05-06T08:22:06.232Z,452.9231
2023-05-06T08:23:07.853Z,453.5385
2023-05-06T08:24:09.346Z,445.1538
2023-05-06T08:25:11.118Z,430.2308
2023-05-06T08:26:12.503Z,454.0769
2023-05-06T08:27:14.241Z,432.0000
2023-05-06T08:28:16.074Z,454.9231
2023-05-06T08:29:17.905Z,457.7692
2023-05-06T08:30:19.737Z,454.3846
2023-05-06T08:31:21.619Z,456.3077
2023-05-06T08:32:23.481Z,457.3846
2023-05-06T08:33:25.271Z,456.1538
2023-05-06T08:34:27.159Z,456.5385
2023-05-06T08:35:28.966Z,455.1538
2023-05-06T08:36:30.786Z,454.4615
2023-05-06T08:37:32.624Z,454.2308
2023-05-06T08:38:34.486Z,453.2308
2023-05-06T08:39:36.305Z,451.8462
2023-05-06T08:40:38.117Z,451.2308
2023-05-06T08:41:39.966Z,450.2308
2023-05-06T08:42:41.793Z,436.7692
2023-05-06T08:43:43.654Z,462.4615
2023-05-06T08:44:45.452Z,431.1538
2023-05-06T08:45:47.357Z,443.7692
2023-05-06T08:46:49.150Z,458.1538
2023-05-06T08:47:51.021Z,452.4615
2023-05-06T08:48:52.833Z,454.2308
2023-05-06T08:49:54.640Z,454.6923
2023-05-06T08:50:56.473Z,454.3077
2023-05-06T08:51:58.338Z,455.6154
2023-05-06T08:53:00.171Z,454.5385
2023-05-06T08:54:02.146Z,451.0000
2023-05-06T08:55:03.857Z,451.3846
2023-05-06T08:56:05.703Z,450.4615
2023-05-06T08:57:07.926Z,450.2308
2023-05-06T08:58:09.383Z,448.8462
2023-05-06T08:59:11.242Z,442.6154
2023-05-06T09:00:13.052Z,437.5385
2023-05-06T09:01:14.915Z,412.7692
2023-05-06T09:02:16.788Z,443.6154
2023-05-06T09:03:18.870Z,443.4615
2023-05-06T09:04:20.488Z,440.4615
2023-05-06T09:05:22.244Z,446.6923
2023-05-06T09:06:24.090Z,447.0000
2023-05-06T09:07:25.955Z,446.5385
2023-05-06T09:08:27.763Z,449.1538
2023-05-06T09:09:29.729Z,451.3077
2023-05-06T09:10:31.441Z,452.1538
2023-05-06T09:11:33.284Z,450.8462
2023-05-06T09:12:35.137Z,448.8462
2023-05-06T09:13:36.983Z,448.2308
2023-05-06T09:14:38.801Z,447.1538
2023-05-06T09:15:40.654Z,445.1538
2023-05-06T09:16:42.504Z,441.9231
2023-05-06T09:17:44.394Z,446.6154
2023-05-06T09:18:46.151Z,436.5385
2023-05-06T09:19:48.000Z,427.5385
2023-05-06T09:20:49.872Z,451.7692
2023-05-06T09:21:51.686Z,445.8462
2023-05-06T09:22:53.564Z,444.0000
2023-05-06T09:23:55.375Z,446.6923
2023-05-06T09:24:57.341Z,445.5385
2023-05-06T09:25:59.044Z,446.5385
2023-05-06T09:27:00.902Z,447.4615
2023-05-06T09:28:02.724Z,447.2308
2023-05-06T09:29:04.607Z,447.0000
2023-05-06T09:30:06.413Z,446.0000
2023-05-06T09:31:08.242Z,447.0769
2023-05-06T09:32:10.109Z,448.4615
2023-05-06T09:33:11.975Z,447.9231
2023-05-06T09:34:13.762Z,442.9231
2023-05-06T09:35:15.617Z,420.3077
2023-05-06T09:36:17.447Z,439.4615
2023-05-06T09:37:19.267Z,458.3077
2023-05-06T09:38:21.137Z,441.6154
2023-05-06T09:39:22.949Z,436.0000
2023-05-06T09:40:24.788Z,442.6154
2023-05-06T09:41:26.653Z,442.7692
2023-05-06T09:42:28.482Z,441.8462
2023-05-06T09:43:30.380Z,442.4615
2023-05-06T09:44:32.173Z,442.3846
2023-05-06T09:45:34.053Z,442.6923
2023-05-06T09:46:35.847Z,441.5385
2023-05-06T09:47:37.697Z,443.5385
2023-05-06T09:48:39.524Z,444.7692
2023-05-06T09:49:41.347Z,445.6923
2023-05-06T09:50:43.173Z,446.0769
2023-05-06T09:51:45.008Z,441.0000
2023-05-06T09:52:46.859Z,423.7692
2023-05-06T09:53:48.705Z,435.8462
2023-05-06T09:54:50.521Z,436.2308
2023-05-06T09:55:52.420Z,435.7692
2023-05-06T09:56:54.198Z,442.8462
2023-05-06T09:57:56.069Z,441.4615
2023-05-06T09:58:57.876Z,439.8462
2023-05-06T09:59:59.783Z,439.7692
2023-05-06T10:01:01.557Z,440.9231
2023-05-06T10:02:03.418Z,442.0000
2023-05-06T10:03:05.367Z,440.8462
2023-05-06T10:04:07.195Z,441.1538
2023-05-06T10:05:09.164Z,441.9231
2023-05-06T10:06:10.735Z,441.2308
2023-05-06T10:07:12.580Z,441.6154
2023-05-06T10:08:14.411Z,442.8462
2023-05-06T10:09:16.287Z,429.6923
2023-05-06T10:10:18.103Z,424.5385
2023-05-06T10:11:19.985Z,452.3077
2023-05-06T10:12:21.770Z,422.5385
2023-05-06T10:13:23.767Z,425.3846
2023-05-06T10:14:25.427Z,441.6923
2023-05-06T10:15:27.276Z,435.6154
2023-05-06T10:16:29.194Z,439.8462
2023-05-06T10:17:30.977Z,440.8462
2023-05-06T10:18:32.795Z,441.1538
2023-05-06T10:19:34.627Z,443.3077
2023-05-06T10:20:36.522Z,443.5385
2023-05-06T10:21:38.278Z,443.6154
2023-05-06T10:22:40.133Z,443.6923
2023-05-06T10:23:41.954Z,441.8462
2023-05-06T10:24:43.805Z,441.3077
2023-05-06T10:25:45.662Z,442.0000
2023-05-06T10:26:47.531Z,436.1538
2023-05-06T10:27:49.304Z,439.1538
2023-05-06T10:28:51.165Z,405.5385
2023-05-06T10:29:52.973Z,455.1538
2023-05-06T10:30:54.823Z,430.0769
2023-05-06T10:31:56.685Z,440.6154
2023-05-06T10:32:58.558Z,435.1538
2023-05-06T10:34:00.313Z,436.7692
2023-05-06T10:35:02.172Z,436.0000
2023-05-06T10:36:03.983Z,438.0769
2023-05-06T10:37:05.818Z,437.2308
2023-05-06T10:38:07.655Z,438.2308
2023-05-06T10:39:09.488Z,439.1538
2023-05-06T10:40:11.327Z,439.6923
2023-05-06T10:41:13.217Z,440.3846
2023-05-06T10:42:15.068Z,439.6154
2023-05-06T10:43:16.905Z,437.0000
2023-05-06T10:44:18.750Z,428.0769
2023-05-06T10:45:20.643Z,421.3846
2023-05-06T10:46:22.429Z,428.6923
2023-05-06T10:47:24.288Z,423.9231
2023-05-06T10:48:26.081Z,441.5385
2023-05-06T10:49:27.922Z,428.5385
2023-05-06T10:50:29.826Z,441.7692
2023-05-06T10:51:31.597Z,442.5385
2023-05-06T10:52:33.431Z,442.3077
2023-05-06T10:53:35.294Z,442.1538
2023-05-06T10:54:37.110Z,441.5385
2023-05-06T10:55:38.956Z,441.3846
2023-05-06T10:56:40.811Z,440.1538
2023-05-06T10:57:42.675Z,439.4615
2023-05-06T10:58:44.460Z,438.2308
2023-05-06T10:59:46.284Z,437.6154
2023-05-06T11:00:48.210Z,437.3077
2023-05-06T11:01:49.972Z,429.1538
2023-05-06T11:02:51.857Z,421.4615
2023-05-06T11:03:53.649Z,431.5385
2023-05-06T11:04:55.542Z,416.0769
2023-05-06T11:05:57.334Z,443.3077
2023-05-06T11:06:59.180Z,434.7692
2023-05-06T11:08:00.992Z,436.6154
2023-05-06T11:09:02.840Z,437.6154
2023-05-06T11:10:04.704Z,437.6923
2023-05-06T11:11:06.506Z,437.2308
2023-05-06T11:12:08.363Z,436.4615
2023-05-06T11:13:10.252Z,436.0769
2023-05-06T11:14:12.031Z,437.1538
2023-05-06T11:15:13.867Z,435.3846
2023-05-06T11:16:15.718Z,435.3077
2023-05-06T11:17:17.546Z,435.9231
2023-05-06T11:18:19.420Z,435.2308
2023-05-06T11:19:21.234Z,429.4615
2023-05-06T11:20:23.079Z,434.6154
2023-05-06T11:21:24.929Z,412.9231
2023-05-06T11:22:26.738Z,410.9231
2023-05-06T11:23:28.580Z,426.5385
2023-05-06T11:24:30.457Z,435.6154
2023-05-06T11:25:32.277Z,430.4615
2023-05-06T11:26:34.155Z,433.2308
2023-05-06T11:27:35.947Z,432.7692
2023-05-06T11:28:37.919Z,431.2308
2023-05-06T11:29:39.611Z,432.0000
2023-05-06T11:30:41.493Z,434.5385
2023-05-06T11:31:43.300Z,435.1538
2023-05-06T11:32:45.175Z,433.7692
2023-05-06T11:33:46.967Z,433.8462
2023-05-06T11:34:48.837Z,434.3846
2023-05-06T11:35:50.647Z,434.2308
2023-05-06T11:36:52.520Z,430.9231
2023-05-06T11:37:54.484Z,402.8462
2023-05-06T11:38:56.193Z,418.8462
2023-05-06T11:39:58.010Z,434.3846
2023-05-06T11:40:59.852Z,433.6154
2023-05-06T11:42:01.711Z,423.3846
2023-05-06T11:43:03.533Z,430.9231
2023-05-06T11:44:05.348Z,433.0000
2023-05-06T11:45:07.213Z,433.3846
2023-05-06T11:46:09.043Z,432.7692
2023-05-06T11:47:10.864Z,431.1538
2023-05-06T11:48:12.710Z,431.0769
2023-05-06T11:49:14.556Z,433.3846
2023-05-06T11:50:16.398Z,434.2308
2023-05-06T11:51:18.236Z,434.0769
2023-05-06T11:52:20.080Z,434.1538
2023-05-06T11:53:21.942Z,433.2308
2023-05-06T11:54:23.754Z,416.5385
2023-05-06T11:55:25.594Z,432.8462
2023-05-06T11:56:27.528Z,407.8462
2023-05-06T11:57:29.380Z,433.1538
2023-05-06T11:58:31.179Z,448.7692
2023-05-06T11:59:33.002Z,437.2308
2023-05-06T12:00:34.836Z,446.0769
2023-05-06T12:01:36.676Z,445.0769
2023-05-06T12:02:38.639Z,445.6154
2023-05-06T12:03:40.482Z,446.5385
2023-05-06T12:04:42.340Z,446.3846
2023-05-06T12:05:44.028Z,444.9231